createdAt,value
2023-01-26T00:01:44.870Z,1.00
2023-01-26T00:04:12.854Z,1.10
2023-01-26T00:06:40.202Z,1.00
2023-01-26T00:09:12.347Z,0.90
2023-01-26T00:11:39.674Z,0.90
2023-01-26T00:14:07.223Z,0.90
2023-01-26T00:16:34.536Z,0.90
2023-01-26T00:19:02.693Z,0.90
2023-01-26T00:21:31.059Z,0.90
2023-01-26T00:23:59.813Z,0.90
2023-01-26T00:26:27.939Z,0.80
2023-01-26T00:28:55.423Z,0.90
2023-01-26T00:31:26.323Z,0.80
2023-01-26T00:33:55.245Z,0.90
2023-01-26T00:36:23.109Z,0.90
2023-01-26T00:38:50.483Z,0.80
2023-01-26T00:41:36.868Z,0.90
2023-01-26T00:44:04.547Z,0.90
2023-01-26T00:46:32.292Z,0.80
2023-01-26T00:49:01.179Z,0.80
2023-01-26T00:51:28.861Z,0.80
2023-01-26T00:53:57.134Z,0.80
2023-01-26T00:56:28.042Z,0.80
2023-01-26T00:58:55.557Z,0.80
2023-01-26T01:01:22.913Z,0.70
2023-01-26T01:03:52.178Z,0.80
2023-01-26T01:06:19.567Z,0.80
2023-01-26T01:08:47.295Z,0.70
2023-01-26T01:11:14.752Z,0.80
2023-01-26T01:13:42.363Z,0.80
2023-01-26T01:16:12.578Z,0.80
2023-01-26T01:18:40.217Z,0.80
2023-01-26T01:21:12.191Z,0.70
2023-01-26T01:23:39.542Z,0.70
2023-01-26T01:26:07.420Z,0.70
2023-01-26T01:28:35.816Z,0.70
2023-01-26T01:31:08.627Z,0.80
2023-01-26T01:33:36.610Z,0.80
2023-01-26T01:36:10.501Z,0.80
2023-01-26T01:38:38.168Z,0.80
2023-01-26T01:41:06.578Z,0.80
2023-01-26T01:43:34.280Z,0.80
2023-01-26T01:46:08.074Z,0.80
2023-01-26T01:49:07.567Z,0.80
2023-01-26T01:51:45.258Z,0.80
2023-01-26T01:54:16.976Z,0.80
2023-01-26T01:56:50.346Z,0.80
2023-01-26T01:59:22.518Z,0.90
2023-01-26T02:01:50.674Z,0.80
2023-01-26T02:04:19.765Z,0.80
2023-01-26T02:06:57.599Z,0.80
2023-01-26T02:09:54.635Z,0.80
2023-01-26T02:12:27.351Z,0.80
2023-01-26T02:14:55.443Z,0.80
2023-01-26T02:17:23.129Z,0.80
2023-01-26T02:20:22.474Z,0.70
2023-01-26T02:23:36.174Z,0.70
2023-01-26T02:26:18.448Z,0.70
2023-01-26T02:28:46.306Z,0.70
2023-01-26T02:31:14.439Z,0.70
2023-01-26T02:33:43.156Z,0.70
2023-01-26T02:36:29.493Z,0.70
2023-01-26T02:39:30.181Z,0.70
2023-01-26T02:42:16.200Z,0.70
2023-01-26T02:44:44.844Z,0.70
2023-01-26T02:47:17.380Z,0.80
2023-01-26T02:49:50.926Z,0.70
2023-01-26T02:52:26.030Z,0.80
2023-01-26T02:55:19.337Z,0.70
2023-01-26T02:57:47.345Z,0.70
2023-01-26T03:00:40.885Z,0.80
2023-01-26T03:03:17.210Z,0.80
2023-01-26T03:05:45.124Z,0.70
2023-01-26T03:08:12.834Z,0.70
2023-01-26T03:10:40.758Z,0.70
2023-01-26T03:13:08.825Z,0.70
2023-01-26T03:15:43.390Z,0.70
2023-01-26T03:18:33.665Z,0.70
2023-01-26T03:21:34.083Z,0.70
2023-01-26T03:24:21.039Z,0.70
2023-01-26T03:27:07.801Z,0.70
2023-01-26T03:29:35.286Z,0.70
2023-01-26T03:32:03.672Z,0.70
2023-01-26T03:34:31.720Z,0.70
2023-01-26T03:36:59.421Z,0.70
2023-01-26T03:39:51.269Z,0.70
2023-01-26T03:42:37.572Z,0.70
2023-01-26T03:45:24.517Z,0.60
2023-01-26T03:48:10.850Z,0.70
2023-01-26T03:50:56.779Z,0.70
2023-01-26T03:53:43.232Z,0.70
2023-01-26T03:56:18.530Z,0.70
2023-01-26T03:58:50.389Z,0.60
2023-01-26T04:01:26.246Z,0.70
2023-01-26T04:04:15.988Z,0.70
2023-01-26T04:07:06.316Z,0.60
2023-01-26T04:09:36.750Z,0.70
2023-01-26T04:12:04.587Z,0.70
2023-01-26T04:14:51.768Z,0.70
2023-01-26T04:17:42.507Z,0.70
2023-01-26T04:20:29.482Z,0.60
2023-01-26T04:22:57.021Z,0.60
2023-01-26T04:25:24.421Z,0.60
2023-01-26T04:27:52.284Z,0.60
2023-01-26T04:30:20.324Z,0.60
2023-01-26T04:32:48.574Z,0.60
2023-01-26T04:35:17.818Z,0.60
2023-01-26T04:37:45.393Z,0.60
2023-01-26T04:40:13.309Z,0.60
2023-01-26T04:42:41.413Z,0.60
2023-01-26T04:45:10.893Z,0.60
2023-01-26T04:47:38.986Z,0.60
2023-01-26T04:50:07.183Z,0.60
2023-01-26T04:52:34.925Z,0.60
2023-01-26T04:55:02.217Z,0.60
2023-01-26T04:57:32.089Z,0.60
2023-01-26T05:00:01.587Z,0.60
2023-01-26T05:02:29.364Z,0.70
2023-01-26T05:04:56.983Z,0.60
2023-01-26T05:07:25.222Z,0.60
2023-01-26T05:09:53.401Z,0.50
2023-01-26T05:12:43.948Z,0.50
2023-01-26T05:15:29.030Z,0.50
2023-01-26T05:18:01.261Z,0.50
2023-01-26T05:20:49.974Z,0.50
2023-01-26T05:23:19.870Z,0.50
2023-01-26T05:26:05.495Z,0.50
2023-01-26T05:28:43.836Z,0.50
2023-01-26T05:31:11.251Z,0.50
2023-01-26T05:33:38.685Z,0.50
2023-01-26T05:36:08.368Z,0.50
2023-01-26T05:38:36.059Z,0.50
2023-01-26T05:41:03.614Z,0.50
2023-01-26T05:43:37.879Z,0.50
2023-01-26T05:46:10.482Z,0.40
2023-01-26T05:48:41.825Z,0.40
2023-01-26T05:51:09.127Z,0.40
2023-01-26T05:53:37.444Z,0.50
2023-01-26T05:56:05.201Z,0.50
2023-01-26T05:58:34.809Z,0.40
2023-01-26T06:01:04.886Z,0.40
2023-01-26T06:03:40.494Z,0.50
2023-01-26T06:06:07.944Z,0.50
2023-01-26T06:08:48.323Z,0.50
2023-01-26T06:11:35.865Z,0.50
2023-01-26T06:14:16.732Z,0.60
2023-01-26T06:16:44.397Z,0.60
2023-01-26T06:19:12.153Z,0.60
2023-01-26T06:21:40.640Z,0.50
2023-01-26T06:24:08.153Z,0.60
2023-01-26T06:26:35.820Z,0.50
2023-01-26T06:29:03.380Z,0.60
2023-01-26T06:31:37.108Z,0.60
2023-01-26T06:34:05.745Z,0.60
2023-01-26T06:36:38.094Z,0.60
2023-01-26T06:39:07.618Z,0.60
2023-01-26T06:41:35.885Z,0.60
2023-01-26T06:44:03.198Z,0.60
2023-01-26T06:46:30.488Z,0.60
2023-01-26T06:48:58.541Z,0.60
2023-01-26T06:52:05.140Z,0.60
2023-01-26T06:54:43.966Z,0.60
2023-01-26T06:57:21.556Z,0.70
2023-01-26T07:00:07.973Z,0.60
2023-01-26T07:02:53.496Z,0.60
2023-01-26T07:05:21.014Z,0.60
2023-01-26T07:07:48.362Z,0.60
2023-01-26T07:10:15.896Z,0.60
2023-01-26T07:12:45.506Z,0.60
2023-01-26T07:15:13.544Z,0.70
2023-01-26T07:17:40.912Z,0.60
2023-01-26T07:20:09.341Z,0.70
2023-01-26T07:22:36.837Z,0.70
2023-01-26T07:25:04.363Z,0.70
2023-01-26T07:27:31.650Z,0.60
2023-01-26T07:29:59.031Z,0.70
2023-01-26T07:32:26.344Z,0.60
2023-01-26T07:34:53.709Z,0.70
2023-01-26T07:37:20.970Z,0.70
2023-01-26T07:39:49.183Z,0.70
2023-01-26T07:42:16.502Z,0.70
2023-01-26T07:45:00.745Z,0.70
2023-01-26T07:47:28.096Z,0.70
2023-01-26T07:49:55.423Z,0.70
2023-01-26T07:52:22.742Z,0.70
2023-01-26T07:54:50.643Z,0.80
2023-01-26T07:57:18.022Z,0.70
2023-01-26T07:59:45.337Z,0.70
2023-01-26T08:02:12.674Z,0.80
2023-01-26T08:04:40.207Z,0.80
2023-01-26T08:07:07.937Z,0.80
2023-01-26T08:09:36.089Z,0.80
2023-01-26T08:12:03.691Z,0.80
2023-01-26T08:14:45.091Z,0.70
2023-01-26T08:17:13.304Z,0.80
2023-01-26T08:19:40.665Z,0.70
2023-01-26T08:22:07.970Z,0.70
2023-01-26T08:24:35.302Z,0.80
2023-01-26T08:27:02.664Z,0.80
2023-01-26T08:29:29.968Z,0.80
2023-01-26T08:31:57.285Z,0.80
2023-01-26T08:34:26.595Z,0.80
2023-01-26T08:36:53.936Z,0.80
2023-01-26T08:39:21.271Z,0.80
2023-01-26T08:41:48.586Z,0.80
2023-01-26T08:44:15.924Z,0.80
2023-01-26T08:46:46.137Z,0.80
2023-01-26T08:49:15.332Z,0.80
2023-01-26T08:51:42.792Z,0.80
2023-01-26T08:54:10.096Z,0.70
2023-01-26T08:56:37.481Z,0.70
2023-01-26T08:59:04.828Z,0.80
2023-01-26T09:01:32.280Z,0.70
2023-01-26T09:04:00.448Z,0.80
2023-01-26T09:06:28.600Z,0.90
2023-01-26T09:08:57.626Z,0.90
2023-01-26T09:11:25.265Z,0.90
2023-01-26T09:13:56.500Z,0.90
2023-01-26T09:16:24.640Z,0.90
2023-01-26T09:18:54.960Z,0.90
2023-01-26T09:21:24.165Z,1.00
2023-01-26T09:23:51.507Z,0.90
2023-01-26T09:26:19.021Z,0.80
2023-01-26T09:28:50.612Z,0.90
2023-01-26T09:31:18.087Z,0.80
2023-01-26T09:33:45.596Z,0.70
2023-01-26T09:36:13.003Z,0.60
2023-01-26T09:38:40.365Z,0.60
2023-01-26T09:41:23.113Z,0.60
2023-01-26T09:44:17.019Z,0.70
2023-01-26T09:47:08.639Z,0.70
2023-01-26T09:49:57.546Z,0.70
2023-01-26T09:53:04.000Z,0.90
2023-01-26T09:55:31.871Z,0.90
2023-01-26T09:58:12.961Z,0.90
2023-01-26T10:00:47.315Z,0.90
2023-01-26T10:03:22.818Z,0.90
2023-01-26T10:06:03.754Z,0.90
2023-01-26T10:08:50.081Z,0.80
2023-01-26T10:11:38.232Z,0.80
2023-01-26T10:14:14.339Z,0.80
2023-01-26T10:16:45.522Z,0.70
2023-01-26T10:19:42.946Z,0.60
2023-01-26T10:22:36.924Z,0.70
2023-01-26T10:25:15.687Z,0.60
2023-01-26T10:27:45.951Z,0.70
2023-01-26T10:30:18.236Z,0.70
2023-01-26T10:32:50.703Z,0.70
2023-01-26T10:35:21.455Z,0.70
2023-01-26T10:37:49.588Z,0.80
2023-01-26T10:40:17.581Z,0.70
2023-01-26T10:42:58.788Z,0.80
2023-01-26T10:45:32.198Z,0.80
2023-01-26T10:48:27.291Z,0.80
2023-01-26T10:50:55.104Z,0.80
2023-01-26T10:53:29.973Z,0.90
2023-01-26T10:56:17.222Z,0.90
2023-01-26T10:58:49.569Z,0.90
2023-01-26T11:01:23.037Z,1.00
2023-01-26T11:04:06.447Z,0.90
2023-01-26T11:06:35.483Z,0.80
2023-01-26T11:09:29.467Z,0.90
2023-01-26T11:12:02.380Z,0.90
2023-01-26T11:14:31.052Z,1.00
2023-01-26T11:17:25.272Z,1.00
2023-01-26T11:19:58.587Z,1.10
2023-01-26T11:22:40.416Z,1.10
2023-01-26T11:25:35.661Z,1.00
2023-01-26T11:28:59.760Z,1.10
2023-01-26T11:31:38.483Z,1.00
2023-01-26T11:34:32.322Z,0.90
2023-01-26T11:37:29.443Z,0.90
2023-01-26T11:40:14.591Z,0.90
2023-01-26T11:42:58.245Z,0.90
2023-01-26T11:45:52.306Z,0.90
2023-01-26T11:48:28.933Z,0.80
2023-01-26T11:50:58.964Z,0.90
2023-01-26T11:53:45.018Z,0.90
2023-01-26T11:56:53.405Z,1.00
2023-01-26T11:59:41.625Z,1.00
2023-01-26T12:02:31.652Z,1.00
2023-01-26T12:05:03.204Z,1.10
2023-01-26T12:08:16.400Z,1.10
2023-01-26T12:11:23.318Z,1.10
2023-01-26T12:14:21.249Z,1.10
2023-01-26T12:17:30.680Z,0.90
2023-01-26T12:20:38.457Z,0.80
2023-01-26T12:23:08.526Z,0.80
2023-01-26T12:25:50.837Z,0.80
2023-01-26T12:28:40.419Z,0.90
2023-01-26T12:31:24.189Z,0.90
2023-01-26T12:33:54.709Z,0.80
2023-01-26T12:37:04.482Z,0.80
2023-01-26T12:39:45.626Z,0.70
2023-01-26T12:42:41.944Z,0.80
2023-01-26T12:45:18.729Z,0.90
2023-01-26T12:47:53.518Z,1.00
2023-01-26T12:50:30.299Z,0.90
2023-01-26T12:53:08.294Z,0.90
2023-01-26T12:56:10.073Z,0.90
2023-01-26T12:58:42.236Z,0.90
2023-01-26T13:01:16.707Z,1.00
2023-01-26T13:03:51.299Z,1.00
2023-01-26T13:06:22.345Z,1.00
2023-01-26T13:08:53.737Z,1.00
2023-01-26T13:11:40.207Z,0.90
2023-01-26T13:14:28.431Z,0.90
2023-01-26T13:16:56.791Z,0.90
2023-01-26T13:19:36.512Z,0.80
2023-01-26T13:22:04.197Z,0.70
2023-01-26T13:24:58.429Z,0.70
2023-01-26T13:28:00.095Z,0.70
2023-01-26T13:30:34.747Z,0.60
2023-01-26T13:33:22.960Z,0.50
2023-01-26T13:35:53.558Z,0.60
2023-01-26T13:38:39.105Z,0.70
2023-01-26T13:41:20.934Z,0.60
2023-01-26T13:44:13.732Z,0.60
2023-01-26T13:46:56.409Z,0.60
2023-01-26T13:49:37.490Z,0.50
2023-01-26T13:52:22.622Z,0.50
2023-01-26T13:54:52.711Z,0.50
2023-01-26T13:57:26.370Z,0.50
2023-01-26T14:00:01.910Z,0.50
2023-01-26T14:02:36.139Z,0.40
2023-01-26T14:05:03.615Z,0.40
2023-01-26T14:07:44.735Z,0.40
2023-01-26T14:10:22.396Z,0.30
2023-01-26T14:12:52.501Z,0.30
2023-01-26T14:15:28.994Z,0.20
2023-01-26T14:18:02.030Z,0.20
2023-01-26T14:20:40.342Z,0.20
2023-01-26T14:23:19.083Z,0.20
2023-01-26T14:25:58.684Z,0.20
2023-01-26T14:28:37.774Z,0.20
2023-01-26T14:31:24.932Z,0.20
2023-01-26T14:33:57.714Z,0.20
2023-01-26T14:36:28.002Z,0.20
2023-01-26T14:38:56.887Z,0.20
2023-01-26T14:41:33.810Z,0.20
2023-01-26T14:44:06.044Z,0.20
2023-01-26T14:47:11.028Z,0.20
2023-01-26T14:49:56.319Z,0.30
2023-01-26T14:52:33.985Z,0.20
2023-01-26T14:55:28.184Z,0.20
2023-01-26T14:57:56.912Z,0.20
2023-01-26T15:00:30.925Z,0.20
2023-01-26T15:03:01.804Z,0.20
2023-01-26T15:05:35.935Z,0.20
2023-01-26T15:08:23.727Z,0.10
2023-01-26T15:11:20.588Z,0.20
2023-01-26T15:13:52.788Z,0.10
2023-01-26T15:16:25.008Z,0.10
2023-01-26T15:19:00.648Z,0.10
2023-01-26T15:21:43.470Z,0.10
2023-01-26T15:24:14.787Z,0.10
2023-01-26T15:26:42.930Z,0.00
2023-01-26T15:29:30.753Z,0.10
2023-01-26T15:31:58.834Z,0.10
2023-01-26T15:34:45.964Z,0.00
2023-01-26T15:37:33.605Z,0.00
2023-01-26T15:40:01.042Z,0.00
2023-01-26T15:42:32.926Z,-0.10
2023-01-26T15:45:00.259Z,-0.20
2023-01-26T15:47:27.573Z,-0.20
2023-01-26T15:49:54.902Z,-0.20
2023-01-26T15:52:25.736Z,-0.20
2023-01-26T15:54:53.970Z,-0.20
2023-01-26T15:57:21.434Z,-0.20
2023-01-26T15:59:48.758Z,-0.20
2023-01-26T16:02:18.234Z,-0.20
2023-01-26T16:04:45.966Z,-0.20
2023-01-26T16:07:15.723Z,-0.20
2023-01-26T16:09:43.664Z,-0.20
2023-01-26T16:12:31.071Z,-0.20
2023-01-26T16:14:59.778Z,-0.20
2023-01-26T16:17:27.180Z,-0.30
2023-01-26T16:19:54.514Z,-0.40
2023-01-26T16:22:21.865Z,-0.30
2023-01-26T16:24:49.155Z,-0.30
2023-01-26T16:27:16.452Z,-0.30
2023-01-26T16:29:43.761Z,-0.30
2023-01-26T16:32:28.577Z,-0.30
2023-01-26T16:34:55.927Z,-0.30
2023-01-26T16:37:23.155Z,-0.30
2023-01-26T16:39:50.461Z,-0.30
2023-01-26T16:42:20.145Z,-0.40
2023-01-26T16:44:47.786Z,-0.40
2023-01-26T16:47:15.132Z,-0.50
2023-01-26T16:49:42.432Z,-0.60
2023-01-26T16:52:10.183Z,-0.60
2023-01-26T16:54:37.592Z,-0.60
2023-01-26T16:57:05.394Z,-0.60
2023-01-26T16:59:32.730Z,-0.60
2023-01-26T17:02:00.372Z,-0.50
2023-01-26T17:04:27.765Z,-0.50
2023-01-26T17:06:55.053Z,-0.40
2023-01-26T17:09:23.866Z,-0.50
2023-01-26T17:11:51.164Z,-0.50
2023-01-26T17:14:18.518Z,-0.50
2023-01-26T17:16:45.926Z,-0.50
2023-01-26T17:19:13.306Z,-0.50
2023-01-26T17:21:40.814Z,-0.50
2023-01-26T17:24:08.381Z,-0.50
2023-01-26T17:26:36.088Z,-0.50
2023-01-26T17:29:03.406Z,-0.50
2023-01-26T17:31:31.672Z,-0.40
2023-01-26T17:33:59.058Z,-0.40
2023-01-26T17:36:26.384Z,-0.40
2023-01-26T17:38:53.822Z,-0.40
2023-01-26T17:41:21.210Z,-0.40
2023-01-26T17:43:48.615Z,-0.40
2023-01-26T17:46:17.804Z,-0.40
2023-01-26T17:48:45.873Z,-0.40
2023-01-26T17:51:16.797Z,-0.40
2023-01-26T17:53:45.315Z,-0.40
2023-01-26T17:56:15.245Z,-0.40
2023-01-26T17:58:42.543Z,-0.40
2023-01-26T18:01:10.662Z,-0.40
2023-01-26T18:03:41.738Z,-0.40
2023-01-26T18:06:09.551Z,-0.50
2023-01-26T18:08:37.576Z,-0.50
2023-01-26T18:11:06.934Z,-0.50
2023-01-26T18:13:34.755Z,-0.50
2023-01-26T18:16:02.256Z,-0.50
2023-01-26T18:18:30.078Z,-0.60
2023-01-26T18:20:57.744Z,-0.70
2023-01-26T18:23:25.303Z,-0.70
2023-01-26T18:25:52.766Z,-0.70
2023-01-26T18:28:20.040Z,-0.70
2023-01-26T18:30:48.518Z,-0.60
2023-01-26T18:33:15.825Z,-0.60
2023-01-26T18:35:43.111Z,-0.60
2023-01-26T18:38:10.371Z,-0.60
2023-01-26T18:40:40.060Z,-0.60
2023-01-26T18:43:08.644Z,-0.50
2023-01-26T18:45:36.065Z,-0.50
2023-01-26T18:48:03.508Z,-0.60
2023-01-26T18:50:30.832Z,-0.60
2023-01-26T18:52:58.138Z,-0.60
2023-01-26T18:55:26.221Z,-0.60
2023-01-26T18:57:55.144Z,-0.50
2023-01-26T19:00:22.714Z,-0.40
2023-01-26T19:02:49.973Z,-0.50
2023-01-26T19:05:17.596Z,-0.50
2023-01-26T19:07:44.868Z,-0.50
2023-01-26T19:10:12.434Z,-0.50
2023-01-26T19:12:39.681Z,-0.60
2023-01-26T19:15:08.276Z,-0.60
2023-01-26T19:17:35.552Z,-0.60
2023-01-26T19:20:03.704Z,-0.60
2023-01-26T19:22:31.358Z,-0.60
2023-01-26T19:24:58.639Z,-0.70
2023-01-26T19:27:26.164Z,-0.60
2023-01-26T19:29:54.383Z,-0.60
2023-01-26T19:32:21.672Z,-0.60
2023-01-26T19:34:49.010Z,-0.60
2023-01-26T19:37:16.302Z,-0.60
2023-01-26T19:39:43.573Z,-0.70
2023-01-26T19:42:10.923Z,-0.70
2023-01-26T19:44:38.235Z,-0.70
2023-01-26T19:47:05.534Z,-0.70
2023-01-26T19:49:32.816Z,-0.70
2023-01-26T19:52:00.143Z,-0.70
2023-01-26T19:54:27.942Z,-0.70
2023-01-26T19:56:55.250Z,-0.70
2023-01-26T19:59:22.587Z,-0.70
2023-01-26T20:01:49.937Z,-0.60
2023-01-26T20:04:17.202Z,-0.70
2023-01-26T20:06:48.272Z,-0.60
2023-01-26T20:09:15.543Z,-0.60
2023-01-26T20:11:42.894Z,-0.60
2023-01-26T20:14:10.899Z,-0.60
2023-01-26T20:16:38.610Z,-0.60
2023-01-26T20:19:06.055Z,-0.50
2023-01-26T20:21:33.764Z,-0.50
2023-01-26T20:24:05.690Z,-0.40
2023-01-26T20:26:34.696Z,-0.50
2023-01-26T20:29:02.068Z,-0.50
2023-01-26T20:31:29.731Z,-0.50
2023-01-26T20:33:58.358Z,-0.50
2023-01-26T20:36:27.822Z,-0.50
2023-01-26T20:38:55.123Z,-0.50
2023-01-26T20:41:25.800Z,-0.50
2023-01-26T20:44:01.835Z,-0.50
2023-01-26T20:46:32.759Z,-0.50
2023-01-26T20:49:00.448Z,-0.50
2023-01-26T20:51:30.982Z,-0.50
2023-01-26T20:53:58.627Z,-0.60
2023-01-26T20:56:26.339Z,-0.60
2023-01-26T20:58:54.815Z,-0.60
2023-01-26T21:01:23.836Z,-0.60
2023-01-26T21:03:51.552Z,-0.60
2023-01-26T21:06:20.402Z,-0.60
2023-01-26T21:08:48.839Z,-0.60
2023-01-26T21:11:17.124Z,-0.70
2023-01-26T21:13:45.299Z,-0.60
2023-01-26T21:16:15.523Z,-0.60
2023-01-26T21:18:43.162Z,-0.70
2023-01-26T21:21:12.835Z,-0.70
2023-01-26T21:23:40.201Z,-0.70
2023-01-26T21:26:11.213Z,-0.60
2023-01-26T21:28:39.028Z,-0.70
2023-01-26T21:31:13.806Z,-0.70
2023-01-26T21:33:43.572Z,-0.70
2023-01-26T21:36:13.485Z,-0.70
2023-01-26T21:38:43.210Z,-0.70
2023-01-26T21:41:32.535Z,-0.70
2023-01-26T21:44:02.025Z,-0.70
2023-01-26T21:46:30.453Z,-0.70
2023-01-26T21:48:58.147Z,-0.70
2023-01-26T21:51:45.226Z,-0.70
2023-01-26T21:54:13.619Z,-0.80
2023-01-26T21:56:41.099Z,-0.70
2023-01-26T21:59:11.477Z,-0.70
2023-01-26T22:01:48.122Z,-0.80
2023-01-26T22:04:17.927Z,-0.70
2023-01-26T22:06:45.275Z,-0.70
2023-01-26T22:09:15.035Z,-0.70
2023-01-26T22:11:42.787Z,-0.70
2023-01-26T22:14:21.508Z,-0.70
2023-01-26T22:16:49.069Z,-0.60
2023-01-26T22:19:16.480Z,-0.70
2023-01-26T22:21:44.174Z,-0.60
2023-01-26T22:24:13.573Z,-0.60
2023-01-26T22:26:41.221Z,-0.60
2023-01-26T22:29:10.413Z,-0.70
2023-01-26T22:31:37.847Z,-0.70
2023-01-26T22:34:05.440Z,-0.70
2023-01-26T22:36:33.426Z,-0.70
2023-01-26T22:39:00.786Z,-0.70
2023-01-26T22:41:30.101Z,-0.70
2023-01-26T22:43:59.481Z,-0.70
2023-01-26T22:46:28.760Z,-0.70
2023-01-26T22:48:57.413Z,-0.70
2023-01-26T22:51:29.947Z,-0.70
2023-01-26T22:53:58.499Z,-0.70
2023-01-26T22:56:27.260Z,-0.70
2023-01-26T22:58:59.355Z,-0.70
2023-01-26T23:01:30.011Z,-0.70
2023-01-26T23:03:58.579Z,-0.70
2023-01-26T23:06:25.970Z,-0.70
2023-01-26T23:08:54.211Z,-0.70
2023-01-26T23:11:24.660Z,-0.70
2023-01-26T23:13:53.557Z,-0.70
2023-01-26T23:16:23.498Z,-0.70
2023-01-26T23:18:55.844Z,-0.70
2023-01-26T23:21:24.144Z,-0.70
2023-01-26T23:23:51.742Z,-0.70
2023-01-26T23:26:20.519Z,-0.70
2023-01-26T23:28:48.295Z,-0.70
2023-01-26T23:31:17.265Z,-0.70
2023-01-26T23:33:45.311Z,-0.70
2023-01-26T23:36:14.035Z,-0.80
2023-01-26T23:38:41.708Z,-0.70
2023-01-26T23:41:09.009Z,-0.70
2023-01-26T23:43:36.709Z,-0.80
2023-01-26T23:46:05.717Z,-0.70
2023-01-26T23:48:33.095Z,-0.70
2023-01-26T23:51:03.952Z,-0.70
2023-01-26T23:53:31.921Z,-0.70
2023-01-26T23:56:03.064Z,-0.70
2023-01-26T23:58:30.391Z,-0.70
